sensor_id;sensor_type;location;lat;lon;timestamp;P1;durP1;ratioP1;P2;durP2;ratioP2
57191;SDS011;43052;52.588;13.396;2022-09-01T00:01:49;1.52;;;1.35;;
57191;SDS011;43052;52.588;13.396;2022-09-01T00:04:17;1.50;;;1.33;;
57191;SDS011;43052;52.588;13.396;2022-09-01T00:06:44;3.58;;;1.55;;
57191;SDS011;43052;52.588;13.396;2022-09-01T00:09:11;2.28;;;1.50;;
57191;SDS011;43052;52.588;13.396;2022-09-01T00:11:39;2.67;;;1.60;;
57191;SDS011;43052;52.588;13.396;2022-09-01T00:14:07;2.00;;;1.40;;
57191;SDS011;43052;52.588;13.396;2022-09-01T00:16:33;2.08;;;1.38;;
57191;SDS011;43052;52.588;13.396;2022-09-01T00:18:59;2.30;;;1.50;;
57191;SDS011;43052;52.588;13.396;2022-09-01T00:21:28;2.38;;;1.38;;
57191;SDS011;43052;52.588;13.396;2022-09-01T00:23:56;2.72;;;1.45;;
57191;SDS011;43052;52.588;13.396;2022-09-01T00:26:21;3.65;;;1.50;;
57191;SDS011;43052;52.588;13.396;2022-09-01T00:28:47;2.00;;;1.50;;
57191;SDS011;43052;52.588;13.396;2022-09-01T00:31:12;2.20;;;1.40;;
57191;SDS011;43052;52.588;13.396;2022-09-01T00:33:41;1.85;;;1.50;;
57191;SDS011;43052;52.588;13.396;2022-09-01T00:36:06;1.70;;;1.60;;
57191;SDS011;43052;52.588;13.396;2022-09-01T00:38:32;1.92;;;1.45;;
57191;SDS011;43052;52.588;13.396;2022-09-01T00:40:58;1.95;;;1.48;;
57191;SDS011;43052;52.588;13.396;2022-09-01T00:43:39;2.20;;;1.50;;
57191;SDS011;43052;52.588;13.396;2022-09-01T00:46:10;1.60;;;1.50;;
57191;SDS011;43052;52.588;13.396;2022-09-01T00:48:37;3.10;;;1.60;;
57191;SDS011;43052;52.588;13.396;2022-09-01T00:51:03;4.53;;;1.73;;
57191;SDS011;43052;52.588;13.396;2022-09-01T00:53:29;1.85;;;1.63;;
57191;SDS011;43052;52.588;13.396;2022-09-01T00:55:55;2.17;;;1.48;;
57191;SDS011;43052;52.588;13.396;2022-09-01T00:58:20;1.88;;;1.50;;
57191;SDS011;43052;52.588;13.396;2022-09-01T01:00:46;2.65;;;1.80;;
57191;SDS011;43052;52.588;13.396;2022-09-01T01:03:15;2.53;;;1.60;;
57191;SDS011;43052;52.588;13.396;2022-09-01T01:05:42;2.70;;;1.80;;
57191;SDS011;43052;52.588;13.396;2022-09-01T01:08:18;4.03;;;1.70;;
57191;SDS011;43052;52.588;13.396;2022-09-01T01:10:55;3.22;;;1.60;;
57191;SDS011;43052;52.588;13.396;2022-09-01T01:13:20;2.95;;;1.70;;
57191;SDS011;43052;52.588;13.396;2022-09-01T01:15:49;3.17;;;1.90;;
57191;SDS011;43052;52.588;13.396;2022-09-01T01:18:14;3.30;;;1.70;;
57191;SDS011;43052;52.588;13.396;2022-09-01T01:20:40;5.13;;;2.00;;
57191;SDS011;43052;52.588;13.396;2022-09-01T01:23:29;3.90;;;1.70;;
57191;SDS011;43052;52.588;13.396;2022-09-01T01:26:04;2.13;;;1.73;;
57191;SDS011;43052;52.588;13.396;2022-09-01T01:28:32;3.17;;;1.80;;
57191;SDS011;43052;52.588;13.396;2022-09-01T01:31:00;1.63;;;1.52;;
57191;SDS011;43052;52.588;13.396;2022-09-01T01:33:38;2.20;;;1.85;;
57191;SDS011;43052;52.588;13.396;2022-09-01T01:36:08;3.83;;;2.13;;
57191;SDS011;43052;52.588;13.396;2022-09-01T01:38:38;3.58;;;1.70;;
57191;SDS011;43052;52.588;13.396;2022-09-01T01:41:07;2.20;;;1.70;;
57191;SDS011;43052;52.588;13.396;2022-09-01T01:43:33;2.67;;;1.80;;
57191;SDS011;43052;52.588;13.396;2022-09-01T01:45:58;4.78;;;1.75;;
57191;SDS011;43052;52.588;13.396;2022-09-01T01:48:27;2.50;;;1.63;;
57191;SDS011;43052;52.588;13.396;2022-09-01T01:50:53;3.15;;;1.83;;
57191;SDS011;43052;52.588;13.396;2022-09-01T01:53:20;2.67;;;1.95;;
57191;SDS011;43052;52.588;13.396;2022-09-01T01:55:46;1.90;;;1.60;;
57191;SDS011;43052;52.588;13.396;2022-09-01T01:58:13;2.97;;;1.85;;
57191;SDS011;43052;52.588;13.396;2022-09-01T02:00:39;4.00;;;1.90;;
57191;SDS011;43052;52.588;13.396;2022-09-01T02:03:08;3.25;;;1.80;;
57191;SDS011;43052;52.588;13.396;2022-09-01T02:05:36;2.53;;;1.73;;
57191;SDS011;43052;52.588;13.396;2022-09-01T02:08:04;2.22;;;1.80;;
57191;SDS011;43052;52.588;13.396;2022-09-01T02:10:37;2.38;;;1.98;;
57191;SDS011;43052;52.588;13.396;2022-09-01T02:13:06;2.22;;;2.03;;
57191;SDS011;43052;52.588;13.396;2022-09-01T02:15:36;2.85;;;2.00;;
57191;SDS011;43052;52.588;13.396;2022-09-01T02:18:10;3.05;;;1.98;;
57191;SDS011;43052;52.588;13.396;2022-09-01T02:20:42;4.93;;;1.98;;
57191;SDS011;43052;52.588;13.396;2022-09-01T02:23:09;3.40;;;1.95;;
57191;SDS011;43052;52.588;13.396;2022-09-01T02:25:36;2.08;;;1.88;;
57191;SDS011;43052;52.588;13.396;2022-09-01T02:28:03;3.05;;;2.20;;
57191;SDS011;43052;52.588;13.396;2022-09-01T02:30:33;2.70;;;2.13;;
57191;SDS011;43052;52.588;13.396;2022-09-01T02:33:00;2.95;;;2.30;;
57191;SDS011;43052;52.588;13.396;2022-09-01T02:35:25;2.83;;;1.92;;
57191;SDS011;43052;52.588;13.396;2022-09-01T02:38:00;2.90;;;2.30;;
57191;SDS011;43052;52.588;13.396;2022-09-01T02:40:27;4.65;;;2.13;;
57191;SDS011;43052;52.588;13.396;2022-09-01T02:42:54;3.05;;;2.10;;
57191;SDS011;43052;52.588;13.396;2022-09-01T02:45:20;4.72;;;2.20;;
57191;SDS011;43052;52.588;13.396;2022-09-01T02:47:46;5.97;;;2.20;;
57191;SDS011;43052;52.588;13.396;2022-09-01T02:50:12;5.63;;;2.60;;
57191;SDS011;43052;52.588;13.396;2022-09-01T02:52:41;3.92;;;2.50;;
57191;SDS011;43052;52.588;13.396;2022-09-01T02:55:07;3.55;;;2.40;;
57191;SDS011;43052;52.588;13.396;2022-09-01T02:57:33;2.75;;;2.30;;
57191;SDS011;43052;52.588;13.396;2022-09-01T02:59:59;3.40;;;2.38;;
57191;SDS011;43052;52.588;13.396;2022-09-01T03:02:24;4.07;;;2.40;;
57191;SDS011;43052;52.588;13.396;2022-09-01T03:04:52;2.90;;;2.45;;
57191;SDS011;43052;52.588;13.396;2022-09-01T03:07:21;4.40;;;2.55;;
57191;SDS011;43052;52.588;13.396;2022-09-01T03:09:47;3.00;;;2.63;;
57191;SDS011;43052;52.588;13.396;2022-09-01T03:12:13;2.63;;;2.42;;
57191;SDS011;43052;52.588;13.396;2022-09-01T03:14:38;3.13;;;2.50;;
57191;SDS011;43052;52.588;13.396;2022-09-01T03:17:04;4.47;;;2.80;;
57191;SDS011;43052;52.588;13.396;2022-09-01T03:19:29;3.72;;;3.10;;
57191;SDS011;43052;52.588;13.396;2022-09-01T03:21:58;4.28;;;2.75;;
57191;SDS011;43052;52.588;13.396;2022-09-01T03:24:24;3.60;;;3.00;;
57191;SDS011;43052;52.588;13.396;2022-09-01T03:26:49;5.38;;;3.20;;
57191;SDS011;43052;52.588;13.396;2022-09-01T03:29:15;5.15;;;2.80;;
57191;SDS011;43052;52.588;13.396;2022-09-01T03:31:40;3.78;;;2.92;;
57191;SDS011;43052;52.588;13.396;2022-09-01T03:34:06;4.95;;;3.05;;
57191;SDS011;43052;52.588;13.396;2022-09-01T03:36:34;6.45;;;3.10;;
57191;SDS011;43052;52.588;13.396;2022-09-01T03:39:00;3.92;;;3.10;;
57191;SDS011;43052;52.588;13.396;2022-09-01T03:41:26;5.32;;;3.35;;
57191;SDS011;43052;52.588;13.396;2022-09-01T03:43:54;3.78;;;3.20;;
57191;SDS011;43052;52.588;13.396;2022-09-01T03:46:22;8.02;;;3.47;;
57191;SDS011;43052;52.588;13.396;2022-09-01T03:48:49;5.10;;;3.28;;
57191;SDS011;43052;52.588;13.396;2022-09-01T03:51:17;7.10;;;3.53;;
57191;SDS011;43052;52.588;13.396;2022-09-01T03:53:43;5.90;;;3.45;;
57191;SDS011;43052;52.588;13.396;2022-09-01T03:56:09;3.90;;;3.35;;
57191;SDS011;43052;52.588;13.396;2022-09-01T03:58:35;6.85;;;4.10;;
57191;SDS011;43052;52.588;13.396;2022-09-01T04:01:00;4.43;;;3.47;;
57191;SDS011;43052;52.588;13.396;2022-09-01T04:03:28;4.82;;;4.10;;
57191;SDS011;43052;52.588;13.396;2022-09-01T04:05:56;5.82;;;3.88;;
57191;SDS011;43052;52.588;13.396;2022-09-01T04:08:22;6.00;;;4.20;;
57191;SDS011;43052;52.588;13.396;2022-09-01T04:10:55;7.45;;;4.13;;
57191;SDS011;43052;52.588;13.396;2022-09-01T04:13:23;6.20;;;3.95;;
57191;SDS011;43052;52.588;13.396;2022-09-01T04:15:52;8.02;;;4.15;;
57191;SDS011;43052;52.588;13.396;2022-09-01T04:18:17;6.35;;;4.50;;
57191;SDS011;43052;52.588;13.396;2022-09-01T04:20:48;6.90;;;4.53;;
57191;SDS011;43052;52.588;13.396;2022-09-01T04:23:19;5.78;;;4.05;;
57191;SDS011;43052;52.588;13.396;2022-09-01T04:25:55;5.72;;;4.20;;
57191;SDS011;43052;52.588;13.396;2022-09-01T04:28:32;5.05;;;3.95;;
57191;SDS011;43052;52.588;13.396;2022-09-01T04:31:01;7.47;;;4.30;;
57191;SDS011;43052;52.588;13.396;2022-09-01T04:33:32;8.57;;;4.60;;
57191;SDS011;43052;52.588;13.396;2022-09-01T04:36:03;8.15;;;4.03;;
57191;SDS011;43052;52.588;13.396;2022-09-01T04:38:30;6.13;;;4.38;;
57191;SDS011;43052;52.588;13.396;2022-09-01T04:40:55;4.85;;;3.92;;
57191;SDS011;43052;52.588;13.396;2022-09-01T04:43:21;5.50;;;3.80;;
57191;SDS011;43052;52.588;13.396;2022-09-01T04:45:47;4.72;;;3.88;;
57191;SDS011;43052;52.588;13.396;2022-09-01T04:48:15;5.65;;;3.80;;
57191;SDS011;43052;52.588;13.396;2022-09-01T04:50:41;7.38;;;3.50;;
57191;SDS011;43052;52.588;13.396;2022-09-01T04:53:06;6.10;;;3.78;;
57191;SDS011;43052;52.588;13.396;2022-09-01T04:55:36;5.43;;;3.55;;
57191;SDS011;43052;52.588;13.396;2022-09-01T04:58:08;4.70;;;3.22;;
57191;SDS011;43052;52.588;13.396;2022-09-01T05:00:37;3.60;;;3.00;;
57191;SDS011;43052;52.588;13.396;2022-09-01T05:03:04;4.28;;;3.35;;
57191;SDS011;43052;52.588;13.396;2022-09-01T05:05:40;4.70;;;3.10;;
57191;SDS011;43052;52.588;13.396;2022-09-01T05:08:08;4.95;;;2.95;;
57191;SDS011;43052;52.588;13.396;2022-09-01T05:10:39;4.80;;;3.03;;
57191;SDS011;43052;52.588;13.396;2022-09-01T05:13:08;6.40;;;3.47;;
57191;SDS011;43052;52.588;13.396;2022-09-01T05:15:36;5.85;;;3.38;;
57191;SDS011;43052;52.588;13.396;2022-09-01T05:18:02;4.60;;;3.03;;
57191;SDS011;43052;52.588;13.396;2022-09-01T05:20:35;4.78;;;2.92;;
57191;SDS011;43052;52.588;13.396;2022-09-01T05:23:02;5.10;;;2.97;;
57191;SDS011;43052;52.588;13.396;2022-09-01T05:25:28;4.43;;;3.08;;
57191;SDS011;43052;52.588;13.396;2022-09-01T05:27:54;3.22;;;2.70;;
57191;SDS011;43052;52.588;13.396;2022-09-01T05:30:19;4.03;;;2.70;;
57191;SDS011;43052;52.588;13.396;2022-09-01T05:32:44;3.78;;;3.10;;
57191;SDS011;43052;52.588;13.396;2022-09-01T05:35:13;4.22;;;2.70;;
57191;SDS011;43052;52.588;13.396;2022-09-01T05:37:38;4.93;;;2.20;;
57191;SDS011;43052;52.588;13.396;2022-09-01T05:40:07;2.55;;;1.75;;
57191;SDS011;43052;52.588;13.396;2022-09-01T05:42:33;5.55;;;2.30;;
57191;SDS011;43052;52.588;13.396;2022-09-01T05:45:02;3.78;;;1.67;;
57191;SDS011;43052;52.588;13.396;2022-09-01T05:47:28;4.22;;;1.92;;
57191;SDS011;43052;52.588;13.396;2022-09-01T05:49:53;4.63;;;2.00;;
57191;SDS011;43052;52.588;13.396;2022-09-01T05:52:19;4.90;;;1.80;;
57191;SDS011;43052;52.588;13.396;2022-09-01T05:54:48;2.70;;;1.50;;
57191;SDS011;43052;52.588;13.396;2022-09-01T05:57:14;2.95;;;1.50;;
57191;SDS011;43052;52.588;13.396;2022-09-01T05:59:39;3.05;;;1.50;;
57191;SDS011;43052;52.588;13.396;2022-09-01T06:02:05;6.30;;;1.98;;
57191;SDS011;43052;52.588;13.396;2022-09-01T06:04:32;1.40;;;1.30;;
57191;SDS011;43052;52.588;13.396;2022-09-01T06:06:58;2.15;;;1.50;;
57191;SDS011;43052;52.588;13.396;2022-09-01T06:09:23;4.57;;;1.40;;
57191;SDS011;43052;52.588;13.396;2022-09-01T06:11:49;1.75;;;1.38;;
57191;SDS011;43052;52.588;13.396;2022-09-01T06:14:16;1.65;;;1.55;;
57191;SDS011;43052;52.588;13.396;2022-09-01T06:16:42;2.33;;;1.30;;
57191;SDS011;43052;52.588;13.396;2022-09-01T06:19:08;2.15;;;1.40;;
57191;SDS011;43052;52.588;13.396;2022-09-01T06:21:34;3.30;;;1.70;;
57191;SDS011;43052;52.588;13.396;2022-09-01T06:24:00;1.58;;;1.30;;
57191;SDS011;43052;52.588;13.396;2022-09-01T06:26:26;2.80;;;1.43;;
57191;SDS011;43052;52.588;13.396;2022-09-01T06:28:55;2.28;;;1.40;;
57191;SDS011;43052;52.588;13.396;2022-09-01T06:31:22;1.52;;;1.20;;
57191;SDS011;43052;52.588;13.396;2022-09-01T06:33:50;3.50;;;1.63;;
57191;SDS011;43052;52.588;13.396;2022-09-01T06:36:18;2.63;;;1.30;;
57191;SDS011;43052;52.588;13.396;2022-09-01T06:38:47;2.78;;;1.20;;
57191;SDS011;43052;52.588;13.396;2022-09-01T06:41:17;1.52;;;1.17;;
57191;SDS011;43052;52.588;13.396;2022-09-01T06:43:47;1.88;;;1.10;;
57191;SDS011;43052;52.588;13.396;2022-09-01T06:46:17;1.85;;;1.13;;
57191;SDS011;43052;52.588;13.396;2022-09-01T06:48:43;2.78;;;1.25;;
57191;SDS011;43052;52.588;13.396;2022-09-01T06:51:11;2.05;;;1.10;;
57191;SDS011;43052;52.588;13.396;2022-09-01T06:53:39;5.43;;;1.33;;
57191;SDS011;43052;52.588;13.396;2022-09-01T06:56:06;3.30;;;1.20;;
57191;SDS011;43052;52.588;13.396;2022-09-01T06:58:33;2.17;;;1.20;;
57191;SDS011;43052;52.588;13.396;2022-09-01T07:01:04;2.58;;;1.48;;
57191;SDS011;43052;52.588;13.396;2022-09-01T07:03:30;3.75;;;1.17;;
57191;SDS011;43052;52.588;13.396;2022-09-01T07:05:57;2.00;;;1.20;;
57191;SDS011;43052;52.588;13.396;2022-09-01T07:08:23;2.17;;;1.45;;
57191;SDS011;43052;52.588;13.396;2022-09-01T07:10:49;1.65;;;1.20;;
57191;SDS011;43052;52.588;13.396;2022-09-01T07:13:19;1.60;;;1.38;;
57191;SDS011;43052;52.588;13.396;2022-09-01T07:15:49;2.38;;;1.40;;
57191;SDS011;43052;52.588;13.396;2022-09-01T07:18:16;1.63;;;1.17;;
57191;SDS011;43052;52.588;13.396;2022-09-01T07:20:45;1.75;;;1.10;;
57191;SDS011;43052;52.588;13.396;2022-09-01T07:23:12;3.00;;;1.30;;
57191;SDS011;43052;52.588;13.396;2022-09-01T07:25:41;2.03;;;1.13;;
57191;SDS011;43052;52.588;13.396;2022-09-01T07:28:08;1.52;;;1.10;;
57191;SDS011;43052;52.588;13.396;2022-09-01T07:30:39;1.65;;;1.13;;
57191;SDS011;43052;52.588;13.396;2022-09-01T07:33:06;2.42;;;1.40;;
57191;SDS011;43052;52.588;13.396;2022-09-01T07:35:35;2.53;;;1.30;;
57191;SDS011;43052;52.588;13.396;2022-09-01T07:38:02;2.53;;;1.30;;
57191;SDS011;43052;52.588;13.396;2022-09-01T07:40:29;1.20;;;1.10;;
57191;SDS011;43052;52.588;13.396;2022-09-01T07:42:54;1.77;;;1.43;;
57191;SDS011;43052;52.588;13.396;2022-09-01T07:45:21;1.80;;;1.20;;
57191;SDS011;43052;52.588;13.396;2022-09-01T07:47:47;2.17;;;1.20;;
57191;SDS011;43052;52.588;13.396;2022-09-01T07:50:12;1.93;;;1.20;;
57191;SDS011;43052;52.588;13.396;2022-09-01T07:52:39;2.45;;;1.13;;
57191;SDS011;43052;52.588;13.396;2022-09-01T07:55:14;1.52;;;1.20;;
57191;SDS011;43052;52.588;13.396;2022-09-01T07:57:41;2.35;;;1.40;;
57191;SDS011;43052;52.588;13.396;2022-09-01T08:00:10;1.83;;;1.10;;
57191;SDS011;43052;52.588;13.396;2022-09-01T08:02:39;1.30;;;1.17;;
57191;SDS011;43052;52.588;13.396;2022-09-01T08:05:09;1.10;;;1.00;;
57191;SDS011;43052;52.588;13.396;2022-09-01T08:07:37;1.95;;;1.40;;
57191;SDS011;43052;52.588;13.396;2022-09-01T08:10:03;1.70;;;1.20;;
57191;SDS011;43052;52.588;13.396;2022-09-01T08:12:30;2.15;;;1.15;;
57191;SDS011;43052;52.588;13.396;2022-09-01T08:14:56;3.13;;;1.45;;
57191;SDS011;43052;52.588;13.396;2022-09-01T08:17:21;1.52;;;1.05;;
57191;SDS011;43052;52.588;13.396;2022-09-01T08:19:46;1.90;;;1.30;;
57191;SDS011;43052;52.588;13.396;2022-09-01T08:22:12;1.70;;;1.30;;
57191;SDS011;43052;52.588;13.396;2022-09-01T08:24:38;2.60;;;1.50;;
57191;SDS011;43052;52.588;13.396;2022-09-01T08:27:04;1.80;;;1.45;;
57191;SDS011;43052;52.588;13.396;2022-09-01T08:29:29;1.60;;;1.20;;
57191;SDS011;43052;52.588;13.396;2022-09-01T08:31:54;2.28;;;1.40;;
57191;SDS011;43052;52.588;13.396;2022-09-01T08:34:23;4.20;;;1.17;;
57191;SDS011;43052;52.588;13.396;2022-09-01T08:36:49;1.48;;;1.33;;
57191;SDS011;43052;52.588;13.396;2022-09-01T08:39:14;1.60;;;1.35;;
57191;SDS011;43052;52.588;13.396;2022-09-01T08:42:02;1.30;;;1.20;;
57191;SDS011;43052;52.588;13.396;2022-09-01T08:44:49;2.35;;;1.35;;
57191;SDS011;43052;52.588;13.396;2022-09-01T08:47:22;1.90;;;1.10;;
57191;SDS011;43052;52.588;13.396;2022-09-01T08:49:47;1.50;;;1.40;;
57191;SDS011;43052;52.588;13.396;2022-09-01T08:52:34;2.40;;;1.20;;
57191;SDS011;43052;52.588;13.396;2022-09-01T08:57:53;1.65;;;1.33;;
57191;SDS011;43052;52.588;13.396;2022-09-01T09:00:23;3.03;;;1.23;;
57191;SDS011;43052;52.588;13.396;2022-09-01T09:02:52;1.48;;;1.30;;
57191;SDS011;43052;52.588;13.396;2022-09-01T09:05:48;1.67;;;1.40;;
57191;SDS011;43052;52.588;13.396;2022-09-01T09:08:28;1.73;;;1.50;;
57191;SDS011;43052;52.588;13.396;2022-09-01T09:11:03;2.25;;;1.30;;
57191;SDS011;43052;52.588;13.396;2022-09-01T09:16:17;1.60;;;1.50;;
57191;SDS011;43052;52.588;13.396;2022-09-01T09:18:50;1.80;;;1.52;;
57191;SDS011;43052;52.588;13.396;2022-09-01T09:21:27;2.92;;;1.42;;
57191;SDS011;43052;52.588;13.396;2022-09-01T09:24:05;1.30;;;1.20;;
57191;SDS011;43052;52.588;13.396;2022-09-01T09:26:34;1.50;;;1.40;;
57191;SDS011;43052;52.588;13.396;2022-09-01T09:29:00;3.40;;;1.85;;
57191;SDS011;43052;52.588;13.396;2022-09-01T09:31:30;1.85;;;1.33;;
57191;SDS011;43052;52.588;13.396;2022-09-01T09:36:51;3.53;;;1.10;;
57191;SDS011;43052;52.588;13.396;2022-09-01T09:39:17;1.20;;;1.20;;
57191;SDS011;43052;52.588;13.396;2022-09-01T09:41:42;1.60;;;1.30;;
57191;SDS011;43052;52.588;13.396;2022-09-01T09:44:26;1.33;;;1.10;;
57191;SDS011;43052;52.588;13.396;2022-09-01T09:46:54;0.77;;;0.60;;
57191;SDS011;43052;52.588;13.396;2022-09-01T09:51:57;1.80;;;0.90;;
57191;SDS011;43052;52.588;13.396;2022-09-01T09:54:38;1.27;;;1.20;;
57191;SDS011;43052;52.588;13.396;2022-09-01T09:57:22;1.50;;;0.88;;
57191;SDS011;43052;52.588;13.396;2022-09-01T10:02:31;1.58;;;1.10;;
57191;SDS011;43052;52.588;13.396;2022-09-01T10:04:59;1.75;;;1.05;;
57191;SDS011;43052;52.588;13.396;2022-09-01T10:09:55;1.42;;;1.20;;
57191;SDS011;43052;52.588;13.396;2022-09-01T10:12:24;1.92;;;1.15;;
57191;SDS011;43052;52.588;13.396;2022-09-01T10:14:52;1.33;;;1.20;;
57191;SDS011;43052;52.588;13.396;2022-09-01T10:17:33;2.13;;;1.23;;
57191;SDS011;43052;52.588;13.396;2022-09-01T10:20:24;1.52;;;1.02;;
57191;SDS011;43052;52.588;13.396;2022-09-01T10:22:50;1.95;;;0.65;;
57191;SDS011;43052;52.588;13.396;2022-09-01T10:25:25;1.50;;;0.90;;
57191;SDS011;43052;52.588;13.396;2022-09-01T10:27:57;1.60;;;0.90;;
57191;SDS011;43052;52.588;13.396;2022-09-01T10:30:27;1.15;;;0.75;;
57191;SDS011;43052;52.588;13.396;2022-09-01T10:32:55;1.98;;;0.70;;
57191;SDS011;43052;52.588;13.396;2022-09-01T10:35:24;1.05;;;0.73;;
57191;SDS011;43052;52.588;13.396;2022-09-01T10:37:52;0.90;;;0.73;;
57191;SDS011;43052;52.588;13.396;2022-09-01T10:42:48;1.75;;;1.25;;
57191;SDS011;43052;52.588;13.396;2022-09-01T10:47:55;2.13;;;1.00;;
57191;SDS011;43052;52.588;13.396;2022-09-01T10:50:23;1.00;;;0.90;;
57191;SDS011;43052;52.588;13.396;2022-09-01T10:52:51;2.35;;;0.90;;
57191;SDS011;43052;52.588;13.396;2022-09-01T11:00:44;0.88;;;0.80;;
57191;SDS011;43052;52.588;13.396;2022-09-01T11:08:20;0.65;;;0.65;;
57191;SDS011;43052;52.588;13.396;2022-09-01T11:10:50;1.60;;;0.80;;
57191;SDS011;43052;52.588;13.396;2022-09-01T11:13:27;1.42;;;1.33;;
57191;SDS011;43052;52.588;13.396;2022-09-01T11:22:08;1.27;;;0.75;;
57191;SDS011;43052;52.588;13.396;2022-09-01T11:25:08;1.63;;;0.90;;
57191;SDS011;43052;52.588;13.396;2022-09-01T11:30:14;1.17;;;0.80;;
57191;SDS011;43052;52.588;13.396;2022-09-01T11:32:41;1.42;;;0.75;;
57191;SDS011;43052;52.588;13.396;2022-09-01T11:35:15;0.70;;;0.70;;
57191;SDS011;43052;52.588;13.396;2022-09-01T11:37:46;2.40;;;0.70;;
57191;SDS011;43052;52.588;13.396;2022-09-01T11:40:17;2.08;;;0.80;;
57191;SDS011;43052;52.588;13.396;2022-09-01T11:42:45;0.85;;;0.77;;
57191;SDS011;43052;52.588;13.396;2022-09-01T11:45:13;0.90;;;0.80;;
57191;SDS011;43052;52.588;13.396;2022-09-01T11:47:48;1.67;;;0.80;;
57191;SDS011;43052;52.588;13.396;2022-09-01T11:50:24;2.67;;;0.90;;
57191;SDS011;43052;52.588;13.396;2022-09-01T11:53:01;1.23;;;0.93;;
57191;SDS011;43052;52.588;13.396;2022-09-01T11:55:39;0.80;;;0.80;;
57191;SDS011;43052;52.588;13.396;2022-09-01T11:58:10;1.77;;;0.80;;
57191;SDS011;43052;52.588;13.396;2022-09-01T12:00:55;2.05;;;0.90;;
57191;SDS011;43052;52.588;13.396;2022-09-01T12:03:35;0.77;;;0.77;;
57191;SDS011;43052;52.588;13.396;2022-09-01T12:06:01;1.27;;;0.88;;
57191;SDS011;43052;52.588;13.396;2022-09-01T12:08:30;1.00;;;0.60;;
57191;SDS011;43052;52.588;13.396;2022-09-01T12:11:09;1.35;;;0.65;;
57191;SDS011;43052;52.588;13.396;2022-09-01T12:13:37;0.82;;;0.80;;
57191;SDS011;43052;52.588;13.396;2022-09-01T12:16:05;0.88;;;0.82;;
57191;SDS011;43052;52.588;13.396;2022-09-01T12:18:33;0.80;;;0.80;;
57191;SDS011;43052;52.588;13.396;2022-09-01T12:21:05;1.65;;;0.80;;
57191;SDS011;43052;52.588;13.396;2022-09-01T12:23:33;2.38;;;0.85;;
57191;SDS011;43052;52.588;13.396;2022-09-01T12:26:01;1.00;;;0.85;;
57191;SDS011;43052;52.588;13.396;2022-09-01T12:28:30;3.25;;;1.00;;
57191;SDS011;43052;52.588;13.396;2022-09-01T12:30:58;0.70;;;0.70;;
57191;SDS011;43052;52.588;13.396;2022-09-01T12:33:25;0.85;;;0.80;;
57191;SDS011;43052;52.588;13.396;2022-09-01T12:35:51;3.33;;;0.80;;
57191;SDS011;43052;52.588;13.396;2022-09-01T12:38:59;0.90;;;0.80;;
57191;SDS011;43052;52.588;13.396;2022-09-01T12:41:42;1.60;;;0.63;;
57191;SDS011;43052;52.588;13.396;2022-09-01T12:44:24;1.48;;;0.80;;
57191;SDS011;43052;52.588;13.396;2022-09-01T12:47:00;2.35;;;0.70;;
57191;SDS011;43052;52.588;13.396;2022-09-01T12:49:35;1.98;;;0.90;;
57191;SDS011;43052;52.588;13.396;2022-09-01T12:52:11;1.25;;;0.70;;
57191;SDS011;43052;52.588;13.396;2022-09-01T12:54:37;0.98;;;0.90;;
57191;SDS011;43052;52.588;13.396;2022-09-01T12:57:03;0.70;;;0.70;;
57191;SDS011;43052;52.588;13.396;2022-09-01T12:59:29;1.15;;;0.75;;
57191;SDS011;43052;52.588;13.396;2022-09-01T13:01:55;0.80;;;0.80;;
57191;SDS011;43052;52.588;13.396;2022-09-01T13:06:45;0.77;;;0.77;;
57191;SDS011;43052;52.588;13.396;2022-09-01T13:09:11;0.85;;;0.80;;
57191;SDS011;43052;52.588;13.396;2022-09-01T13:11:36;1.58;;;0.80;;
57191;SDS011;43052;52.588;13.396;2022-09-01T13:14:02;1.65;;;0.85;;
57191;SDS011;43052;52.588;13.396;2022-09-01T13:16:27;0.80;;;0.80;;
57191;SDS011;43052;52.588;13.396;2022-09-01T13:18:53;0.95;;;0.85;;
57191;SDS011;43052;52.588;13.396;2022-09-01T13:21:18;1.50;;;0.90;;
57191;SDS011;43052;52.588;13.396;2022-09-01T13:23:43;2.05;;;0.90;;
57191;SDS011;43052;52.588;13.396;2022-09-01T13:26:10;2.92;;;1.10;;
57191;SDS011;43052;52.588;13.396;2022-09-01T13:28:35;1.83;;;1.05;;
57191;SDS011;43052;52.588;13.396;2022-09-01T13:31:01;3.10;;;0.93;;
57191;SDS011;43052;52.588;13.396;2022-09-01T13:33:32;2.30;;;0.98;;
57191;SDS011;43052;52.588;13.396;2022-09-01T13:35:59;2.00;;;0.90;;
57191;SDS011;43052;52.588;13.396;2022-09-01T13:38:24;1.17;;;0.90;;
57191;SDS011;43052;52.588;13.396;2022-09-01T13:40:50;2.03;;;0.98;;
57191;SDS011;43052;52.588;13.396;2022-09-01T13:43:18;1.65;;;0.90;;
57191;SDS011;43052;52.588;13.396;2022-09-01T13:45:45;2.88;;;1.35;;
57191;SDS011;43052;52.588;13.396;2022-09-01T13:48:11;2.15;;;0.90;;
57191;SDS011;43052;52.588;13.396;2022-09-01T13:50:37;1.45;;;0.93;;
57191;SDS011;43052;52.588;13.396;2022-09-01T13:53:03;1.25;;;0.90;;
57191;SDS011;43052;52.588;13.396;2022-09-01T13:55:30;0.82;;;0.80;;
57191;SDS011;43052;52.588;13.396;2022-09-01T13:57:57;1.98;;;0.90;;
57191;SDS011;43052;52.588;13.396;2022-09-01T14:00:24;1.90;;;1.00;;
57191;SDS011;43052;52.588;13.396;2022-09-01T14:02:53;1.48;;;0.90;;
57191;SDS011;43052;52.588;13.396;2022-09-01T14:05:22;2.08;;;0.90;;
57191;SDS011;43052;52.588;13.396;2022-09-01T14:07:49;1.23;;;0.75;;
57191;SDS011;43052;52.588;13.396;2022-09-01T14:10:15;0.90;;;0.85;;
57191;SDS011;43052;52.588;13.396;2022-09-01T14:12:41;1.70;;;0.90;;
57191;SDS011;43052;52.588;13.396;2022-09-01T14:15:08;1.05;;;0.90;;
57191;SDS011;43052;52.588;13.396;2022-09-01T14:17:35;2.53;;;0.90;;
57191;SDS011;43052;52.588;13.396;2022-09-01T14:20:01;0.80;;;0.70;;
57191;SDS011;43052;52.588;13.396;2022-09-01T14:22:27;1.13;;;0.90;;
57191;SDS011;43052;52.588;13.396;2022-09-01T14:24:53;2.40;;;1.10;;
57191;SDS011;43052;52.588;13.396;2022-09-01T14:27:18;2.05;;;1.00;;
57191;SDS011;43052;52.588;13.396;2022-09-01T14:29:47;1.48;;;0.80;;
57191;SDS011;43052;52.588;13.396;2022-09-01T14:32:14;1.60;;;1.00;;
57191;SDS011;43052;52.588;13.396;2022-09-01T14:34:40;2.08;;;0.90;;
57191;SDS011;43052;52.588;13.396;2022-09-01T14:37:07;1.17;;;0.93;;
57191;SDS011;43052;52.588;13.396;2022-09-01T14:39:32;1.73;;;0.82;;
57191;SDS011;43052;52.588;13.396;2022-09-01T14:41:57;3.50;;;0.90;;
57191;SDS011;43052;52.588;13.396;2022-09-01T14:44:23;1.00;;;0.90;;
57191;SDS011;43052;52.588;13.396;2022-09-01T14:46:48;1.23;;;0.95;;
57191;SDS011;43052;52.588;13.396;2022-09-01T14:49:13;2.20;;;1.00;;
57191;SDS011;43052;52.588;13.396;2022-09-01T14:51:40;2.08;;;1.20;;
57191;SDS011;43052;52.588;13.396;2022-09-01T14:54:06;9.75;;;3.20;;
57191;SDS011;43052;52.588;13.396;2022-09-01T14:56:31;1.27;;;0.98;;
57191;SDS011;43052;52.588;13.396;2022-09-01T14:58:56;3.15;;;1.00;;
57191;SDS011;43052;52.588;13.396;2022-09-01T15:01:34;1.85;;;1.00;;
57191;SDS011;43052;52.588;13.396;2022-09-01T15:04:00;1.48;;;1.00;;
57191;SDS011;43052;52.588;13.396;2022-09-01T15:06:25;2.20;;;0.90;;
57191;SDS011;43052;52.588;13.396;2022-09-01T15:08:50;3.33;;;1.10;;
57191;SDS011;43052;52.588;13.396;2022-09-01T15:11:17;1.27;;;1.00;;
57191;SDS011;43052;52.588;13.396;2022-09-01T15:13:43;1.15;;;0.88;;
57191;SDS011;43052;52.588;13.396;2022-09-01T15:16:13;0.80;;;0.80;;
57191;SDS011;43052;52.588;13.396;2022-09-01T15:18:41;1.77;;;0.90;;
57191;SDS011;43052;52.588;13.396;2022-09-01T15:21:07;1.80;;;0.90;;
57191;SDS011;43052;52.588;13.396;2022-09-01T15:23:33;1.42;;;1.00;;
57191;SDS011;43052;52.588;13.396;2022-09-01T15:25:58;1.63;;;0.90;;